createdAt,value
2019-05-11T00:00:35.124Z,6.83
2019-05-11T00:03:04.511Z,7.73
2019-05-11T00:05:35.614Z,7.70
2019-05-11T00:08:05.296Z,6.97
2019-05-11T00:10:44.062Z,6.92
2019-05-11T00:13:13.430Z,6.10
2019-05-11T00:15:44.108Z,6.47
2019-05-11T00:18:13.519Z,6.40
2019-05-11T00:20:43.062Z,6.60
2019-05-11T00:23:12.724Z,6.60
2019-05-11T00:25:42.168Z,5.70
2019-05-11T00:28:11.665Z,5.83
2019-05-11T00:31:50.990Z,5.70
2019-05-11T00:34:20.354Z,5.87
2019-05-11T00:36:50.020Z,5.20
2019-05-11T00:39:19.400Z,6.27
2019-05-11T00:41:54.726Z,5.00
2019-05-11T00:44:24.249Z,5.63
2019-05-11T00:46:53.617Z,5.87
2019-05-11T00:49:23.239Z,5.87
2019-05-11T00:51:54.498Z,5.87
2019-05-11T00:54:24.156Z,5.60
2019-05-11T00:56:53.513Z,5.57
2019-05-11T00:59:23.106Z,5.73
2019-05-11T01:01:54.436Z,6.77
2019-05-11T01:04:24.046Z,5.83
2019-05-11T01:06:53.432Z,5.30
2019-05-11T01:09:23.085Z,5.85
2019-05-11T01:12:32.822Z,6.50
2019-05-11T01:15:02.413Z,5.42
2019-05-11T01:17:32.095Z,5.40
2019-05-11T01:20:01.917Z,5.77
2019-05-11T01:22:31.307Z,6.00
2019-05-11T01:25:00.678Z,5.10
2019-05-11T01:27:30.174Z,5.13
2019-05-11T01:29:59.537Z,6.23
2019-05-11T01:32:29.203Z,5.35
2019-05-11T01:34:58.663Z,6.30
2019-05-11T01:37:29.516Z,5.37
2019-05-11T01:39:59.170Z,4.87
2019-05-11T01:42:28.551Z,6.37
2019-05-11T01:44:58.207Z,5.58
2019-05-11T01:47:27.661Z,5.60
2019-05-11T01:49:57.312Z,5.65
2019-05-11T01:52:26.691Z,6.03
2019-05-11T01:54:56.675Z,5.90
2019-05-11T01:57:26.379Z,7.13
2019-05-11T01:59:56.734Z,6.30
2019-05-11T02:02:27.333Z,6.57
2019-05-11T02:05:14.389Z,6.53
2019-05-11T02:07:43.770Z,5.90
2019-05-11T02:10:13.499Z,5.80
2019-05-11T02:12:42.881Z,5.70
2019-05-11T02:15:12.874Z,6.28
2019-05-11T02:17:42.386Z,5.00
2019-05-11T02:20:12.011Z,6.03
2019-05-11T02:22:41.671Z,5.77
2019-05-11T02:25:11.063Z,5.80
2019-05-11T02:27:41.506Z,5.77
2019-05-11T02:30:11.411Z,6.63
2019-05-11T02:32:40.754Z,6.60
2019-05-11T02:35:10.867Z,6.05
2019-05-11T02:37:40.581Z,6.53
2019-05-11T02:40:10.522Z,5.73
2019-05-11T02:42:40.056Z,6.20
2019-05-11T02:45:09.948Z,6.07
2019-05-11T02:47:39.499Z,6.40
2019-05-11T02:50:09.224Z,5.47
2019-05-11T02:52:38.950Z,6.37
2019-05-11T02:55:10.932Z,5.65
2019-05-11T02:57:40.527Z,6.60
2019-05-11T03:00:10.394Z,6.03
2019-05-11T03:03:04.585Z,7.27
2019-05-11T03:05:34.000Z,6.10
2019-05-11T03:08:03.680Z,5.87
2019-05-11T03:10:33.041Z,5.80
2019-05-11T03:13:02.720Z,5.97
2019-05-11T03:15:32.381Z,5.67
2019-05-11T03:18:01.801Z,6.03
2019-05-11T03:20:33.510Z,5.90
2019-05-11T03:23:02.868Z,5.80
2019-05-11T03:25:32.544Z,6.08
2019-05-11T03:28:01.900Z,6.10
2019-05-11T03:30:32.706Z,5.80
2019-05-11T03:33:02.262Z,5.83
2019-05-11T03:35:31.628Z,6.53
2019-05-11T03:38:00.982Z,5.58
2019-05-11T03:40:30.666Z,7.47
2019-05-11T03:43:00.349Z,5.47
2019-05-11T03:45:29.696Z,6.07
2019-05-11T03:47:59.083Z,7.53
2019-05-11T03:50:28.561Z,6.30
2019-05-11T03:52:58.924Z,6.83
2019-05-11T03:55:28.582Z,6.37
2019-05-11T03:57:57.963Z,6.37
2019-05-11T04:00:27.643Z,6.20
2019-05-11T04:03:21.889Z,6.90
2019-05-11T04:05:51.567Z,6.60
2019-05-11T04:08:20.981Z,6.20
2019-05-11T04:10:50.661Z,6.45
2019-05-11T04:13:20.038Z,6.90
2019-05-11T04:15:49.820Z,6.37
2019-05-11T04:18:19.183Z,6.40
2019-05-11T04:20:48.636Z,6.77
2019-05-11T04:23:18.066Z,7.23
2019-05-11T04:25:48.749Z,6.90
2019-05-11T04:28:18.101Z,6.53
2019-05-11T04:30:47.724Z,6.53
2019-05-11T04:33:17.090Z,6.27
2019-05-11T04:35:46.764Z,7.40
2019-05-11T04:38:16.138Z,6.47
2019-05-11T04:40:45.782Z,7.10
2019-05-11T04:43:15.146Z,7.60
2019-05-11T04:45:45.742Z,7.90
2019-05-11T04:48:15.128Z,7.47
2019-05-11T04:50:44.774Z,7.60
2019-05-11T04:53:14.761Z,7.20
2019-05-11T04:55:44.135Z,8.27
2019-05-11T04:58:13.804Z,7.50
2019-05-11T05:00:43.163Z,8.10
2019-05-11T05:03:12.797Z,8.17
2019-05-11T05:05:42.179Z,8.47
2019-05-11T05:08:11.832Z,8.00
2019-05-11T05:10:52.387Z,8.00
2019-05-11T05:13:23.376Z,8.47
2019-05-11T05:15:53.362Z,8.20
2019-05-11T05:18:22.789Z,8.33
2019-05-11T05:20:53.052Z,9.30
2019-05-11T05:23:22.726Z,8.80
2019-05-11T05:28:34.163Z,9.70
2019-05-11T05:31:09.843Z,9.38
2019-05-11T05:33:39.204Z,9.17
2019-05-11T05:36:09.866Z,10.40
2019-05-11T05:38:39.236Z,9.20
2019-05-11T05:41:09.083Z,9.15
2019-05-11T05:43:38.701Z,8.03
2019-05-11T05:46:09.086Z,7.83
2019-05-11T05:48:38.762Z,7.95
2019-05-11T05:51:09.341Z,8.50
2019-05-11T05:53:38.823Z,10.50
2019-05-11T05:56:08.512Z,6.93
2019-05-11T05:58:37.931Z,8.50
2019-05-11T06:01:10.088Z,8.90
2019-05-11T06:03:38.746Z,17.42
2019-05-11T06:06:08.378Z,6.83
2019-05-11T06:08:37.871Z,10.03
2019-05-11T06:11:07.291Z,6.60
2019-05-11T06:13:45.304Z,6.17
2019-05-11T06:16:08.428Z,7.07
2019-05-11T06:18:37.935Z,8.47
2019-05-11T06:21:08.292Z,8.30
2019-05-11T06:23:38.013Z,6.90
2019-05-11T06:26:07.427Z,5.53
2019-05-11T06:28:37.060Z,6.30
2019-05-11T06:31:06.548Z,5.90
2019-05-11T06:33:35.953Z,6.10
2019-05-11T06:36:05.377Z,6.03
2019-05-11T06:38:34.914Z,6.07
2019-05-11T06:41:04.610Z,5.83
2019-05-11T06:43:34.072Z,6.00
2019-05-11T06:46:03.451Z,7.13
2019-05-11T06:48:32.965Z,5.50
2019-05-11T06:51:08.082Z,5.77
2019-05-11T06:53:37.451Z,5.10
2019-05-11T06:56:07.101Z,5.90
2019-05-11T06:58:36.527Z,6.90
2019-05-11T07:01:06.330Z,6.37
2019-05-11T07:03:36.023Z,6.47
2019-05-11T07:06:05.405Z,6.00
2019-05-11T07:08:34.999Z,6.33
2019-05-11T07:11:04.375Z,6.50
2019-05-11T07:13:34.032Z,6.28
2019-05-11T07:16:04.494Z,5.20
2019-05-11T07:18:34.304Z,6.90
2019-05-11T07:21:03.985Z,6.37
2019-05-11T07:23:33.375Z,5.40
2019-05-11T07:26:03.356Z,5.75
2019-05-11T07:28:33.018Z,5.80
2019-05-11T07:31:02.797Z,4.53
2019-05-11T07:33:32.179Z,5.17
2019-05-11T07:36:01.543Z,4.70
2019-05-11T07:38:32.547Z,4.60
2019-05-11T07:41:02.209Z,6.60
2019-05-11T07:43:31.585Z,5.40
2019-05-11T07:46:01.247Z,5.63
2019-05-11T07:48:30.632Z,6.10
2019-05-11T07:51:00.302Z,6.40
2019-05-11T07:54:03.028Z,6.25
2019-05-11T07:56:32.393Z,5.00
2019-05-11T07:59:01.782Z,12.50
2019-05-11T08:01:31.287Z,7.50
2019-05-11T08:04:00.658Z,6.33
2019-05-11T08:06:30.187Z,6.23
2019-05-11T08:08:59.553Z,5.80
2019-05-11T08:11:31.481Z,5.77
2019-05-11T08:14:00.549Z,5.60
2019-05-11T08:16:30.355Z,6.00
2019-05-11T08:18:59.721Z,5.13
2019-05-11T08:21:29.318Z,6.07
2019-05-11T08:23:59.011Z,10.97
2019-05-11T08:26:28.551Z,11.33
2019-05-11T08:28:58.236Z,11.80
2019-05-11T08:31:28.677Z,8.00
2019-05-11T08:33:58.494Z,7.93
2019-05-11T08:36:28.996Z,6.80
2019-05-11T08:38:58.799Z,6.63
2019-05-11T08:41:28.535Z,6.77
2019-05-11T08:43:58.616Z,7.00
2019-05-11T08:46:28.341Z,7.00
2019-05-11T08:48:59.495Z,5.90
2019-05-11T08:51:28.801Z,6.97
2019-05-11T08:53:59.464Z,11.80
2019-05-11T08:56:29.050Z,8.17
2019-05-11T08:58:58.755Z,8.50
2019-05-11T09:01:28.875Z,6.50
2019-05-11T09:03:58.646Z,7.90
2019-05-11T09:06:29.978Z,9.25
2019-05-11T09:08:59.647Z,7.00
2019-05-11T09:11:29.262Z,6.67
2019-05-11T09:13:58.952Z,6.73
2019-05-11T09:16:29.374Z,6.27
2019-05-11T09:18:58.783Z,7.07
2019-05-11T09:21:31.246Z,7.53
2019-05-11T09:24:00.628Z,7.03
2019-05-11T09:26:30.291Z,8.60
2019-05-11T09:28:59.678Z,8.13
2019-05-11T09:31:29.336Z,7.78
2019-05-11T09:33:58.833Z,8.47
2019-05-11T09:36:28.772Z,9.93
2019-05-11T09:38:59.442Z,11.68
2019-05-11T09:41:29.079Z,9.67
2019-05-11T09:43:58.884Z,7.80
2019-05-11T09:46:28.487Z,7.92
2019-05-11T09:48:59.236Z,7.37
2019-05-11T09:51:28.862Z,8.00
2019-05-11T09:53:58.887Z,7.87
2019-05-11T09:56:28.871Z,6.87
2019-05-11T09:58:58.581Z,8.33
2019-05-11T10:01:29.644Z,8.43
2019-05-11T10:03:59.091Z,6.60
2019-05-11T10:06:28.591Z,7.33
2019-05-11T10:08:58.095Z,7.57
2019-05-11T10:11:28.228Z,6.70
2019-05-11T10:13:57.995Z,5.93
2019-05-11T10:16:28.152Z,7.30
2019-05-11T10:18:59.110Z,10.40
2019-05-11T10:21:29.606Z,7.30
2019-05-11T10:23:58.985Z,8.33
2019-05-11T10:26:28.580Z,7.33
2019-05-11T10:28:58.628Z,6.13
2019-05-11T10:31:29.580Z,7.03
2019-05-11T10:33:59.032Z,6.27
2019-05-11T10:36:28.660Z,7.47
2019-05-11T10:38:58.867Z,8.43
2019-05-11T10:41:30.520Z,8.25
2019-05-11T10:43:59.928Z,7.10
2019-05-11T10:46:29.612Z,7.50
2019-05-11T10:48:59.039Z,6.63
2019-05-11T10:51:29.619Z,6.60
2019-05-11T10:53:59.050Z,6.27
2019-05-11T10:56:28.672Z,7.20
2019-05-11T10:58:59.322Z,6.87
2019-05-11T11:01:28.802Z,12.43
2019-05-11T11:03:58.820Z,18.13
2019-05-11T11:06:28.377Z,17.83
2019-05-11T11:08:58.143Z,8.50
2019-05-11T11:11:27.984Z,6.53
2019-05-11T11:13:58.599Z,7.05
2019-05-11T11:16:36.883Z,5.93
2019-05-11T11:18:59.179Z,8.13
2019-05-11T11:21:28.800Z,6.37
2019-05-11T11:23:58.731Z,6.80
2019-05-11T11:26:28.614Z,7.03
2019-05-11T11:28:59.780Z,6.80
2019-05-11T11:31:29.168Z,6.90
2019-05-11T11:33:58.903Z,7.27
2019-05-11T11:36:28.601Z,6.80
2019-05-11T11:38:58.472Z,7.47
2019-05-11T11:41:30.080Z,6.50
2019-05-11T11:44:00.769Z,7.55
2019-05-11T11:46:30.147Z,5.60
2019-05-11T11:48:59.800Z,6.50
2019-05-11T11:51:29.187Z,6.60
2019-05-11T11:53:58.843Z,7.40
2019-05-11T11:56:28.456Z,6.07
2019-05-11T11:58:58.205Z,6.10
2019-05-11T12:01:29.522Z,6.10
2019-05-11T12:04:00.222Z,6.57
2019-05-11T12:06:29.880Z,5.70
2019-05-11T12:08:59.263Z,6.30
2019-05-11T12:11:30.833Z,6.50
2019-05-11T12:14:01.584Z,6.77
2019-05-11T12:16:30.964Z,7.13
2019-05-11T12:19:00.337Z,6.10
2019-05-11T12:21:31.195Z,7.37
2019-05-11T12:24:00.853Z,6.00
2019-05-11T12:26:30.235Z,7.10
2019-05-11T12:29:00.119Z,6.55
2019-05-11T12:31:32.520Z,6.17
2019-05-11T12:34:00.851Z,7.30
2019-05-11T12:36:32.677Z,6.33
2019-05-11T12:39:02.160Z,7.90
2019-05-11T12:41:34.548Z,6.43
2019-05-11T12:44:04.414Z,6.90
2019-05-11T12:46:36.655Z,7.13
2019-05-11T12:49:07.324Z,7.27
2019-05-11T12:51:38.416Z,6.00
2019-05-11T12:54:08.401Z,6.57
2019-05-11T12:56:38.454Z,6.70
2019-05-11T12:59:08.388Z,7.08
2019-05-11T13:01:38.382Z,5.93
2019-05-11T13:04:08.970Z,6.20
2019-05-11T13:06:38.841Z,6.20
2019-05-11T13:09:08.564Z,9.33
2019-05-11T13:11:38.872Z,7.57
2019-05-11T13:14:08.316Z,6.80
2019-05-11T13:16:38.124Z,6.42
2019-05-11T13:19:08.532Z,5.63
2019-05-11T13:21:38.954Z,6.33
2019-05-11T13:24:08.559Z,6.30
2019-05-11T13:26:38.306Z,5.70
2019-05-11T13:29:08.264Z,6.33
2019-05-11T13:31:40.545Z,6.00
2019-05-11T13:34:10.205Z,5.40
2019-05-11T13:36:39.590Z,6.00
2019-05-11T13:39:09.253Z,5.80
2019-05-11T13:41:47.656Z,6.00
2019-05-11T13:44:18.575Z,5.30
2019-05-11T13:46:48.338Z,5.40
2019-05-11T13:49:18.036Z,5.20
2019-05-11T13:51:48.636Z,5.20
2019-05-11T13:54:18.623Z,4.97
2019-05-11T13:56:48.489Z,5.70
2019-05-11T13:59:18.817Z,5.50
2019-05-11T14:01:48.434Z,5.67
2019-05-11T14:06:49.174Z,4.60
2019-05-11T14:09:18.699Z,4.40
2019-05-11T14:11:50.321Z,4.93
2019-05-11T14:14:19.677Z,6.30
2019-05-11T14:16:49.328Z,3.57
2019-05-11T14:19:20.062Z,4.00
2019-05-11T14:21:49.441Z,3.93
2019-05-11T14:24:20.080Z,3.92
2019-05-11T14:26:49.501Z,3.50
2019-05-11T14:29:19.142Z,3.50
2019-05-11T14:32:00.788Z,3.63
2019-05-11T14:32:21.066Z,5.10
2019-05-11T14:34:30.318Z,3.30
2019-05-11T14:36:59.697Z,3.03
2019-05-11T14:39:29.254Z,3.33
2019-05-11T14:41:58.882Z,3.33
2019-05-11T14:44:28.644Z,3.40
2019-05-11T14:46:59.285Z,3.40
2019-05-11T14:49:28.731Z,3.53
2019-05-11T14:51:58.602Z,3.40
2019-05-11T14:54:28.883Z,3.10
2019-05-11T14:56:59.485Z,3.30
2019-05-11T14:59:29.142Z,3.08
2019-05-11T15:02:01.551Z,3.40
2019-05-11T15:04:31.113Z,3.50
2019-05-11T15:07:00.721Z,3.30
2019-05-11T15:09:30.268Z,2.83
2019-05-11T15:11:59.652Z,3.47
2019-05-11T15:14:29.266Z,3.50
2019-05-11T15:16:58.678Z,3.40
2019-05-11T15:19:28.390Z,3.00
2019-05-11T15:22:02.915Z,3.65
2019-05-11T15:24:32.379Z,3.10
2019-05-11T15:27:02.048Z,3.30
2019-05-11T15:29:31.429Z,3.30
2019-05-11T15:32:08.498Z,3.40
2019-05-11T15:34:38.010Z,3.40
2019-05-11T15:37:09.693Z,3.35
2019-05-11T15:39:39.411Z,3.40
2019-05-11T15:42:14.626Z,3.20
2019-05-11T15:44:39.865Z,3.80
2019-05-11T15:47:09.614Z,2.98
2019-05-11T15:49:39.833Z,3.07
2019-05-11T15:52:09.536Z,3.72
2019-05-11T15:54:38.916Z,3.93
2019-05-11T15:57:08.627Z,3.12
2019-05-11T15:59:38.823Z,3.30
2019-05-11T16:02:08.751Z,3.17
2019-05-11T16:04:41.401Z,4.65
2019-05-11T16:07:09.727Z,3.12
2019-05-11T16:09:39.403Z,2.93
2019-05-11T16:12:08.770Z,2.60
2019-05-11T16:14:38.453Z,3.50
2019-05-11T16:17:08.762Z,2.80
2019-05-11T16:19:41.126Z,3.05
2019-05-11T16:22:10.095Z,3.10
2019-05-11T16:24:40.189Z,3.70
2019-05-11T16:27:10.914Z,3.37
2019-05-11T16:29:40.448Z,2.63
2019-05-11T16:32:10.115Z,3.07
2019-05-11T16:34:45.252Z,3.40
2019-05-11T16:37:14.783Z,2.90
2019-05-11T16:39:46.762Z,2.92
2019-05-11T16:42:15.742Z,2.87
2019-05-11T16:44:45.412Z,3.20
2019-05-11T16:47:14.799Z,3.22
2019-05-11T16:49:45.149Z,2.90
2019-05-11T16:53:05.379Z,2.80
2019-05-11T16:55:34.762Z,3.30
2019-05-11T16:58:04.425Z,3.25
2019-05-11T17:00:43.532Z,2.50
2019-05-11T17:03:12.921Z,2.90
2019-05-11T17:05:42.572Z,3.10
2019-05-11T17:08:11.998Z,3.20
2019-05-11T17:10:43.267Z,3.52
2019-05-11T17:13:12.927Z,3.50
2019-05-11T17:15:42.585Z,3.07
2019-05-11T17:18:11.965Z,3.87
2019-05-11T17:20:41.633Z,2.53
2019-05-11T17:23:11.288Z,2.70
2019-05-11T17:25:42.315Z,2.80
2019-05-11T17:28:11.900Z,3.27
2019-05-11T17:30:44.805Z,2.55
2019-05-11T17:33:14.162Z,2.60
2019-05-11T17:35:43.621Z,2.70
2019-05-11T17:38:14.300Z,3.70
2019-05-11T17:40:43.771Z,2.50
2019-05-11T17:43:13.135Z,2.63
2019-05-11T17:45:42.752Z,2.30
2019-05-11T17:48:12.193Z,2.90
2019-05-11T17:50:41.735Z,2.40
2019-05-11T17:53:11.094Z,2.40
2019-05-11T17:55:40.756Z,2.30
2019-05-11T17:58:10.147Z,2.67
2019-05-11T18:00:39.759Z,2.90
2019-05-11T18:03:11.280Z,2.60
2019-05-11T18:05:41.078Z,2.57
2019-05-11T18:08:11.008Z,2.92
2019-05-11T18:10:40.387Z,2.03
2019-05-11T18:13:10.317Z,2.37
2019-05-11T18:15:39.844Z,2.73
2019-05-11T18:18:09.622Z,2.37
2019-05-11T18:20:43.567Z,2.20
2019-05-11T18:23:13.227Z,2.20
2019-05-11T18:25:42.821Z,2.53
2019-05-11T18:28:14.251Z,2.20
2019-05-11T18:30:43.270Z,2.67
2019-05-11T18:33:12.928Z,2.35
2019-05-11T18:35:42.597Z,2.70
2019-05-11T18:38:12.020Z,2.20
2019-05-11T18:40:41.465Z,2.50
2019-05-11T18:43:11.072Z,2.90
2019-05-11T18:45:40.793Z,2.40
2019-05-11T18:48:10.416Z,2.73
2019-05-11T18:50:39.825Z,2.00
2019-05-11T18:53:09.479Z,3.77
2019-05-11T18:55:38.967Z,2.40
2019-05-11T18:58:08.286Z,3.07
2019-05-11T19:00:38.252Z,3.13
2019-05-11T19:03:08.862Z,2.70
2019-05-11T19:05:38.685Z,2.90
2019-05-11T19:08:08.389Z,3.20
2019-05-11T19:10:38.502Z,2.80
2019-05-11T19:13:08.155Z,2.90
2019-05-11T19:15:38.807Z,2.83
2019-05-11T19:18:08.373Z,2.70
2019-05-11T19:20:50.871Z,3.10
2019-05-11T19:23:21.823Z,3.00
2019-05-11T19:25:51.206Z,2.90
2019-05-11T19:28:20.865Z,2.90
2019-05-11T19:30:50.253Z,2.50
2019-05-11T19:33:19.897Z,2.50
2019-05-11T19:35:49.276Z,2.93
2019-05-11T19:38:19.089Z,2.53
2019-05-11T19:40:48.847Z,2.70
2019-05-11T19:43:18.727Z,2.83
2019-05-11T19:45:48.729Z,3.00
2019-05-11T19:48:18.163Z,3.00
2019-05-11T19:51:02.643Z,3.05
2019-05-11T19:53:18.974Z,2.70
2019-05-11T19:55:48.355Z,12.83
2019-05-11T19:58:19.224Z,3.00
2019-05-11T20:00:49.043Z,3.07
2019-05-11T20:03:18.429Z,3.77
2019-05-11T20:05:48.741Z,3.27
2019-05-11T20:08:18.562Z,3.70
2019-05-11T20:10:49.145Z,2.70
2019-05-11T20:13:18.574Z,3.20
2019-05-11T20:15:48.559Z,2.60
2019-05-11T20:18:18.509Z,3.20
2019-05-11T20:20:48.208Z,2.67
2019-05-11T20:23:54.169Z,2.90
2019-05-11T20:26:23.567Z,2.50
2019-05-11T20:28:53.128Z,3.17
2019-05-11T20:31:22.783Z,2.70
2019-05-11T20:33:52.165Z,2.47
2019-05-11T20:36:21.518Z,2.47
2019-05-11T20:38:51.110Z,2.33
2019-05-11T20:41:20.471Z,2.50
2019-05-11T20:43:50.170Z,2.73
2019-05-11T20:46:20.743Z,2.97
2019-05-11T20:48:50.127Z,2.77
2019-05-11T20:51:50.041Z,2.77
2019-05-11T20:54:20.178Z,2.63
2019-05-11T20:56:49.536Z,2.87
2019-05-11T20:59:19.065Z,2.53
2019-05-11T21:01:48.495Z,2.60
2019-05-11T21:04:19.068Z,2.80
2019-05-11T21:06:48.423Z,2.37
2019-05-11T21:09:18.550Z,3.00
2019-05-11T21:11:48.418Z,2.67
2019-05-11T21:14:18.319Z,2.13
2019-05-11T21:16:48.686Z,2.40
2019-05-11T21:19:18.796Z,2.33
2019-05-11T21:21:53.646Z,2.80
2019-05-11T21:24:21.298Z,2.60
2019-05-11T21:26:50.654Z,2.40
2019-05-11T21:29:21.317Z,2.50
2019-05-11T21:31:54.275Z,3.00
2019-05-11T21:34:23.848Z,2.77
2019-05-11T21:36:53.290Z,2.47
2019-05-11T21:39:22.738Z,2.37
2019-05-11T21:41:58.342Z,2.50
2019-05-11T21:44:28.097Z,3.00
2019-05-11T21:47:12.958Z,3.03
2019-05-11T21:50:10.931Z,3.03
2019-05-11T21:52:41.462Z,3.20
2019-05-11T21:55:11.703Z,3.33
2019-05-11T21:57:41.299Z,2.87
2019-05-11T22:00:11.438Z,3.10
2019-05-11T22:02:44.880Z,3.30
2019-05-11T22:05:14.720Z,2.90
2019-05-11T22:07:44.415Z,3.10
2019-05-11T22:10:17.781Z,3.40
2019-05-11T22:12:49.047Z,3.30
2019-05-11T22:15:18.776Z,3.60
2019-05-11T22:17:48.292Z,3.20
2019-05-11T22:20:18.352Z,3.30
2019-05-11T22:22:48.006Z,3.40
2019-05-11T22:25:18.281Z,3.85
2019-05-11T22:27:48.752Z,3.77
2019-05-11T22:30:18.809Z,4.27
2019-05-11T22:32:48.310Z,4.20
2019-05-11T22:35:18.291Z,3.40
2019-05-11T22:37:48.984Z,3.70
2019-05-11T22:40:18.702Z,3.67
2019-05-11T22:42:48.408Z,3.93
2019-05-11T22:45:18.710Z,5.27
2019-05-11T22:47:48.366Z,4.23
2019-05-11T22:50:18.946Z,3.37
2019-05-11T22:52:48.763Z,3.77
2019-05-11T22:55:19.069Z,4.00
2019-05-11T22:57:48.759Z,3.73
2019-05-11T23:00:21.570Z,4.30
2019-05-11T23:02:51.238Z,4.30
2019-05-11T23:05:20.603Z,4.17
2019-05-11T23:07:50.000Z,4.30
2019-05-11T23:10:19.498Z,4.50
2019-05-11T23:12:48.864Z,3.90
2019-05-11T23:15:19.691Z,3.50
2019-05-11T23:17:49.357Z,4.87
2019-05-11T23:20:18.966Z,4.10
2019-05-11T23:22:58.007Z,3.90
2019-05-11T23:25:19.961Z,3.90
2019-05-11T23:27:49.537Z,4.20
2019-05-11T23:30:19.985Z,4.60
2019-05-11T23:32:49.921Z,4.10
2019-05-11T23:35:19.742Z,3.93
2019-05-11T23:37:50.004Z,4.47
2019-05-11T23:40:19.928Z,3.83
2019-05-11T23:42:49.624Z,4.17
2019-05-11T23:45:19.399Z,4.30
2019-05-11T23:47:49.237Z,4.47
2019-05-11T23:50:19.758Z,3.73
2019-05-11T23:53:05.127Z,4.60
2019-05-11T23:55:20.496Z,4.53
2019-05-11T23:57:49.861Z,4.60
